createdAt,value
2022-08-17T00:01:26.241Z,0
2022-08-17T00:15:26.088Z,0
2022-08-17T00:29:26.086Z,0
2022-08-17T00:43:26.232Z,0
2022-08-17T00:57:26.210Z,0
2022-08-17T01:11:26.201Z,0
2022-08-17T01:25:26.227Z,0
2022-08-17T01:39:26.262Z,0
2022-08-17T01:53:26.248Z,0
2022-08-17T02:07:27.107Z,0
2022-08-17T02:21:26.241Z,0
2022-08-17T02:35:26.227Z,0
2022-08-17T02:49:26.283Z,0
2022-08-17T03:03:26.285Z,0
2022-08-17T03:17:26.293Z,0
2022-08-17T03:31:26.714Z,0.8
2022-08-17T03:45:26.847Z,0
2022-08-17T03:59:26.888Z,0
2022-08-17T04:14:26.945Z,0
2022-08-17T04:29:26.942Z,0
2022-08-17T04:44:27.316Z,0
2022-08-17T04:59:26.948Z,0
2022-08-17T05:14:32.824Z,0
2022-08-17T05:29:33.734Z,0
2022-08-17T05:44:27.163Z,0
2022-08-17T05:59:27.160Z,0
2022-08-17T06:14:27.191Z,0
2022-08-17T06:29:27.181Z,0
2022-08-17T06:44:42.067Z,0
2022-08-17T06:59:36.322Z,0
2022-08-17T07:14:27.219Z,0
2022-08-17T07:29:27.241Z,0
2022-08-17T07:44:27.230Z,0.6
2022-08-17T07:59:27.273Z,0.4
2022-08-17T08:14:28.483Z,0.6
2022-08-17T08:29:27.280Z,0.4
2022-08-17T08:44:59.164Z,1.1
2022-08-17T08:59:27.454Z,0.6
2022-08-17T09:14:28.544Z,0.8
2022-08-17T09:29:27.579Z,0.7
2022-08-17T09:44:27.588Z,0.8
2022-08-17T09:59:27.610Z,0.8
2022-08-17T10:14:37.149Z,0.8
2022-08-17T10:29:28.832Z,1.2
2022-08-17T10:45:27.783Z,1.9
2022-08-17T10:52:48.684Z,1.1
2022-08-17T11:07:48.686Z,1.0
2022-08-17T11:22:48.802Z,1.1
2022-08-17T11:37:48.856Z,1.3
2022-08-17T11:52:48.880Z,1.5
2022-08-17T12:07:49.153Z,1.0
2022-08-17T12:22:48.946Z,0.9
2022-08-17T12:37:48.979Z,1.0
2022-08-17T12:52:48.912Z,1.0
2022-08-17T13:07:49.168Z,0.8
2022-08-17T13:22:48.960Z,0.4
2022-08-17T13:37:49.062Z,0.2
2022-08-17T13:52:52.068Z,0
2022-08-17T14:07:49.053Z,1.3
2022-08-17T14:22:49.019Z,0.6
2022-08-17T14:37:49.594Z,0.8
2022-08-17T14:52:49.166Z,0.4
2022-08-17T15:07:49.523Z,0
2022-08-17T15:22:49.426Z,0.2
2022-08-17T15:37:49.662Z,1.1
2022-08-17T15:52:49.673Z,0
2022-08-17T16:07:49.935Z,0
2022-08-17T16:22:50.283Z,0
2022-08-17T16:37:49.884Z,0
2022-08-17T16:52:50.177Z,0.8
2022-08-17T17:07:50.429Z,0.6
2022-08-17T17:22:50.806Z,0.2
2022-08-17T17:37:50.761Z,0
2022-08-17T17:52:50.935Z,0
2022-08-17T18:07:51.150Z,0.4
2022-08-17T18:22:51.127Z,0
2022-08-17T18:37:51.279Z,0
2022-08-17T18:51:51.107Z,1.3
2022-08-17T19:05:50.836Z,1.0
2022-08-17T19:19:50.786Z,0.4
2022-08-17T19:33:50.809Z,0.4
2022-08-17T19:47:55.003Z,0
2022-08-17T20:01:50.856Z,0.8
2022-08-17T20:15:50.823Z,0
2022-08-17T20:29:50.825Z,0.4
2022-08-17T20:43:50.841Z,0.2
2022-08-17T20:57:51.459Z,0.6
2022-08-17T21:11:57.498Z,0
2022-08-17T21:25:51.024Z,0
2022-08-17T21:39:51.048Z,0
2022-08-17T21:53:51.064Z,0
2022-08-17T22:07:51.718Z,0
2022-08-17T22:21:51.146Z,0
2022-08-17T22:35:51.159Z,0.8
2022-08-17T22:49:53.076Z,0.8
2022-08-17T23:03:51.186Z,0.8
2022-08-17T23:17:51.433Z,0.6
2022-08-17T23:31:51.175Z,0.8
2022-08-17T23:45:51.196Z,0
2022-08-17T23:59:51.200Z,0.4
